NKS964 KDTW-KLAS
Flight info
| Callsign | NKS964 |
|---|---|
| Flight time | N/A |
| Altitude | 32000 |
| Route | KAYLN3 SMUUV OBK IOW J60 CNOTA/N0454F340 J60 HVE GGAPP CHOWW4 |
| Aircraft | A321/M-SDE3FGHIRWY/LB1 |
Departure
| Time | 2026-05-07 21:15 |
|---|---|
| Airport | Detroit Metropolitan Wayne County Airport (KDTW) |
Arrival
| Time | N/A |
|---|---|
| Airport | Harry Reid International Airport (KLAS) |
| Time | Latitude | Longitude | Altitude | Speed | Heading |
|---|---|---|---|---|---|
| 2026-05-07 20:18 | 42.22417 | -83.35046 | 650 ft | 0 kts | 129° |
| 2026-05-07 20:20 | 42.22415 | -83.35043 | 649 ft | 0 kts | 129° |
| 2026-05-07 21:01 | 42.22419 | -83.35049 | 649 ft | 4 kts | 129° |
| 2026-05-07 21:01 | 42.22435 | -83.35074 | 649 ft | 2 kts | 130° |
| 2026-05-07 21:01 | 42.22453 | -83.35094 | 649 ft | 4 kts | 171° |
| 2026-05-07 21:01 | 42.22478 | -83.35090 | 650 ft | 4 kts | 208° |
| 2026-05-07 21:02 | 42.22487 | -83.35083 | 649 ft | 1 kts | 210° |
| 2026-05-07 21:02 | 42.22488 | -83.35083 | 649 ft | 0 kts | 210° |
| 2026-05-07 21:05 | 42.22487 | -83.35083 | 649 ft | 0 kts | 210° |
| 2026-05-07 21:05 | 42.22478 | -83.35091 | 650 ft | 5 kts | 210° |
| 2026-05-07 21:06 | 42.22446 | -83.35119 | 650 ft | 6 kts | 219° |
| 2026-05-07 21:06 | 42.22415 | -83.35169 | 649 ft | 8 kts | 231° |
| 2026-05-07 21:06 | 42.22380 | -83.35232 | 650 ft | 9 kts | 233° |
| 2026-05-07 21:06 | 42.22337 | -83.35302 | 651 ft | 10 kts | 218° |
| 2026-05-07 21:07 | 42.22274 | -83.35358 | 649 ft | 11 kts | 213° |
| 2026-05-07 21:07 | 42.22205 | -83.35412 | 649 ft | 12 kts | 209° |
| 2026-05-07 21:07 | 42.22134 | -83.35466 | 649 ft | 12 kts | 209° |
| 2026-05-07 21:07 | 42.22060 | -83.35521 | 650 ft | 12 kts | 209° |
| 2026-05-07 21:08 | 42.21983 | -83.35577 | 649 ft | 13 kts | 207° |
| 2026-05-07 21:08 | 42.21904 | -83.35633 | 649 ft | 13 kts | 208° |
| 2026-05-07 21:08 | 42.21827 | -83.35634 | 648 ft | 12 kts | 127° |
| 2026-05-07 21:08 | 42.21819 | -83.35524 | 648 ft | 12 kts | 88° |
| 2026-05-07 21:09 | 42.21821 | -83.35412 | 648 ft | 12 kts | 88° |
| 2026-05-07 21:09 | 42.21824 | -83.35294 | 648 ft | 13 kts | 88° |
| 2026-05-07 21:09 | 42.21826 | -83.35176 | 649 ft | 13 kts | 88° |
| 2026-05-07 21:09 | 42.21829 | -83.35060 | 649 ft | 12 kts | 88° |
| 2026-05-07 21:10 | 42.21832 | -83.34944 | 649 ft | 12 kts | 88° |
| 2026-05-07 21:10 | 42.21833 | -83.34827 | 649 ft | 13 kts | 90° |
| 2026-05-07 21:10 | 42.21832 | -83.34707 | 650 ft | 13 kts | 90° |
| 2026-05-07 21:10 | 42.21832 | -83.34585 | 650 ft | 13 kts | 88° |
| 2026-05-07 21:11 | 42.21874 | -83.34489 | 651 ft | 13 kts | 32° |
| 2026-05-07 21:11 | 42.21947 | -83.34436 | 649 ft | 13 kts | 29° |
| 2026-05-07 21:11 | 42.22112 | -83.34312 | 649 ft | 14 kts | 29° |
| 2026-05-07 21:12 | 42.22198 | -83.34249 | 649 ft | 14 kts | 28° |
| 2026-05-07 21:12 | 42.22285 | -83.34184 | 649 ft | 14 kts | 29° |
| 2026-05-07 21:12 | 42.22374 | -83.34118 | 649 ft | 15 kts | 28° |
| 2026-05-07 21:12 | 42.22467 | -83.34050 | 651 ft | 16 kts | 28° |
| 2026-05-07 21:13 | 42.22562 | -83.33979 | 650 ft | 16 kts | 28° |
| 2026-05-07 21:13 | 42.22659 | -83.33909 | 649 ft | 16 kts | 28° |
| 2026-05-07 21:13 | 42.22745 | -83.33844 | 651 ft | 11 kts | 31° |
| 2026-05-07 21:13 | 42.22747 | -83.33764 | 650 ft | 9 kts | 117° |
| 2026-05-07 21:14 | 42.22709 | -83.33711 | 651 ft | 8 kts | 175° |
| 2026-05-07 21:14 | 42.22661 | -83.33739 | 652 ft | 9 kts | 208° |
| 2026-05-07 21:14 | 42.22451 | -83.33896 | 654 ft | 71 kts | 208° |
| 2026-05-07 21:14 | 42.21811 | -83.34365 | 651 ft | 135 kts | 208° |
| 2026-05-07 21:15 | 42.20825 | -83.35093 | 779 ft | 175 kts | 213° |
| 2026-05-07 21:15 | 42.19804 | -83.35898 | 1703 ft | 168 kts | 221° |
| 2026-05-07 21:15 | 42.19021 | -83.37007 | 2570 ft | 162 kts | 240° |
| 2026-05-07 21:15 | 42.18364 | -83.38236 | 3196 ft | 166 kts | 239° |
| 2026-05-07 21:16 | 42.17654 | -83.39552 | 3455 ft | 182 kts | 239° |
| 2026-05-07 21:16 | 42.16877 | -83.40981 | 3660 ft | 198 kts | 238° |
| 2026-05-07 21:16 | 42.16015 | -83.42548 | 3901 ft | 214 kts | 238° |
| 2026-05-07 21:16 | 42.15300 | -83.44368 | 4080 ft | 225 kts | 260° |
| 2026-05-07 21:17 | 42.15334 | -83.46466 | 4374 ft | 235 kts | 286° |
| 2026-05-07 21:17 | 42.15888 | -83.48561 | 4999 ft | 239 kts | 291° |
| 2026-05-07 21:17 | 42.16563 | -83.50631 | 5598 ft | 243 kts | 294° |
| 2026-05-07 21:17 | 42.17294 | -83.52695 | 6304 ft | 244 kts | 295° |
| 2026-05-07 21:18 | 42.18042 | -83.54765 | 6954 ft | 246 kts | 294° |
| 2026-05-07 21:18 | 42.18537 | -83.56162 | 7422 ft | 245 kts | 294° |
| 2026-05-07 21:18 | 42.19253 | -83.58236 | 8152 ft | 243 kts | 294° |
| 2026-05-07 21:18 | 42.19949 | -83.60316 | 8809 ft | 244 kts | 292° |
| 2026-05-07 21:19 | 42.20634 | -83.62440 | 9437 ft | 249 kts | 291° |
| 2026-05-07 21:19 | 42.21328 | -83.64613 | 10113 ft | 249 kts | 292° |
| 2026-05-07 21:19 | 42.22013 | -83.66763 | 10730 ft | 250 kts | 292° |
| 2026-05-07 21:19 | 42.22699 | -83.68920 | 11314 ft | 251 kts | 292° |
| 2026-05-07 21:20 | 42.23405 | -83.71094 | 11836 ft | 255 kts | 292° |
| 2026-05-07 21:20 | 42.24132 | -83.73298 | 12357 ft | 261 kts | 292° |
| 2026-05-07 21:20 | 42.24877 | -83.75574 | 12732 ft | 270 kts | 292° |
| 2026-05-07 21:20 | 42.25648 | -83.77953 | 12972 ft | 284 kts | 292° |
| 2026-05-07 21:21 | 42.26452 | -83.80473 | 13106 ft | 300 kts | 292° |
| 2026-05-07 21:21 | 42.27297 | -83.83140 | 13245 ft | 316 kts | 292° |
| 2026-05-07 21:21 | 42.28182 | -83.85921 | 13432 ft | 329 kts | 292° |